sensor_id;sensor_type;location;lat;lon;timestamp;temperature;humidity
50570;DHT22;36525;49.398;7.614;2024-01-15T00:02:03;-4.40;99.90
50570;DHT22;36525;49.398;7.614;2024-01-15T00:04:30;-4.40;99.90
50570;DHT22;36525;49.398;7.614;2024-01-15T00:06:57;-4.40;99.90
50570;DHT22;36525;49.398;7.614;2024-01-15T00:09:24;-4.40;99.90
50570;DHT22;36525;49.398;7.614;2024-01-15T00:11:51;-4.40;99.90
50570;DHT22;36525;49.398;7.614;2024-01-15T00:14:17;-4.30;99.90
50570;DHT22;36525;49.398;7.614;2024-01-15T00:16:47;-4.30;99.90
50570;DHT22;36525;49.398;7.614;2024-01-15T00:19:16;-4.30;99.90
50570;DHT22;36525;49.398;7.614;2024-01-15T00:21:43;-4.30;99.90
50570;DHT22;36525;49.398;7.614;2024-01-15T00:24:10;-4.30;99.90
50570;DHT22;36525;49.398;7.614;2024-01-15T00:26:37;-4.40;99.90
50570;DHT22;36525;49.398;7.614;2024-01-15T00:29:04;-4.30;99.90
50570;DHT22;36525;49.398;7.614;2024-01-15T00:31:30;-4.30;99.90
50570;DHT22;36525;49.398;7.614;2024-01-15T00:33:57;-4.30;99.90
50570;DHT22;36525;49.398;7.614;2024-01-15T00:36:25;-4.30;99.90
50570;DHT22;36525;49.398;7.614;2024-01-15T00:38:52;-4.30;99.90
50570;DHT22;36525;49.398;7.614;2024-01-15T00:41:19;-4.30;99.90
50570;DHT22;36525;49.398;7.614;2024-01-15T00:43:46;-4.30;99.90
50570;DHT22;36525;49.398;7.614;2024-01-15T00:46:15;-4.20;99.90
50570;DHT22;36525;49.398;7.614;2024-01-15T00:48:42;-4.20;99.90
50570;DHT22;36525;49.398;7.614;2024-01-15T00:51:09;-4.20;99.90
50570;DHT22;36525;49.398;7.614;2024-01-15T00:53:36;-4.20;99.90
50570;DHT22;36525;49.398;7.614;2024-01-15T00:56:03;-4.20;99.90
50570;DHT22;36525;49.398;7.614;2024-01-15T00:58:30;-4.20;99.90
50570;DHT22;36525;49.398;7.614;2024-01-15T01:00:56;-4.10;99.90
50570;DHT22;36525;49.398;7.614;2024-01-15T01:03:25;-4.10;99.90
50570;DHT22;36525;49.398;7.614;2024-01-15T01:05:52;-4.10;99.90
50570;DHT22;36525;49.398;7.614;2024-01-15T01:08:19;-4.10;99.90
50570;DHT22;36525;49.398;7.614;2024-01-15T01:10:46;-4.10;99.90
50570;DHT22;36525;49.398;7.614;2024-01-15T01:13:13;-4.10;99.90
50570;DHT22;36525;49.398;7.614;2024-01-15T01:15:40;-4.10;99.90
50570;DHT22;36525;49.398;7.614;2024-01-15T01:18:07;-4.00;99.90
50570;DHT22;36525;49.398;7.614;2024-01-15T01:20:34;-4.10;99.90
50570;DHT22;36525;49.398;7.614;2024-01-15T01:23:01;-4.00;99.90
50570;DHT22;36525;49.398;7.614;2024-01-15T01:25:27;-4.10;99.90
50570;DHT22;36525;49.398;7.614;2024-01-15T01:27:54;-4.00;99.90
50570;DHT22;36525;49.398;7.614;2024-01-15T01:30:21;-4.00;99.90
50570;DHT22;36525;49.398;7.614;2024-01-15T01:32:48;-4.00;99.90
50570;DHT22;36525;49.398;7.614;2024-01-15T01:35:15;-4.00;99.90
50570;DHT22;36525;49.398;7.614;2024-01-15T01:37:41;-4.00;99.90
50570;DHT22;36525;49.398;7.614;2024-01-15T01:40:08;-4.00;99.90
50570;DHT22;36525;49.398;7.614;2024-01-15T01:42:35;-4.00;99.90
50570;DHT22;36525;49.398;7.614;2024-01-15T01:45:02;-4.00;99.90
50570;DHT22;36525;49.398;7.614;2024-01-15T01:47:30;-4.00;99.90
50570;DHT22;36525;49.398;7.614;2024-01-15T01:49:57;-3.90;99.90
50570;DHT22;36525;49.398;7.614;2024-01-15T01:52:24;-3.90;99.90
50570;DHT22;36525;49.398;7.614;2024-01-15T01:54:51;-3.90;99.90
50570;DHT22;36525;49.398;7.614;2024-01-15T01:57:18;-3.90;99.90
50570;DHT22;36525;49.398;7.614;2024-01-15T01:59:46;-3.90;99.90
50570;DHT22;36525;49.398;7.614;2024-01-15T02:02:13;-3.90;99.90
50570;DHT22;36525;49.398;7.614;2024-01-15T02:04:40;-3.90;99.90
50570;DHT22;36525;49.398;7.614;2024-01-15T02:07:07;-3.80;99.90
50570;DHT22;36525;49.398;7.614;2024-01-15T02:09:34;-3.80;99.90
50570;DHT22;36525;49.398;7.614;2024-01-15T02:12:00;-3.80;99.90
50570;DHT22;36525;49.398;7.614;2024-01-15T02:14:28;-3.80;99.90
50570;DHT22;36525;49.398;7.614;2024-01-15T02:16:54;-3.80;99.90
50570;DHT22;36525;49.398;7.614;2024-01-15T02:19:21;-3.80;99.90
50570;DHT22;36525;49.398;7.614;2024-01-15T02:21:48;-3.70;99.90
50570;DHT22;36525;49.398;7.614;2024-01-15T02:24:15;-3.70;99.90
50570;DHT22;36525;49.398;7.614;2024-01-15T02:26:42;-3.70;99.90
50570;DHT22;36525;49.398;7.614;2024-01-15T02:29:09;-3.70;99.90
50570;DHT22;36525;49.398;7.614;2024-01-15T02:31:37;-3.70;99.90
50570;DHT22;36525;49.398;7.614;2024-01-15T02:34:04;-3.70;99.90
50570;DHT22;36525;49.398;7.614;2024-01-15T02:36:31;-3.80;99.90
50570;DHT22;36525;49.398;7.614;2024-01-15T02:38:58;-3.80;99.90
50570;DHT22;36525;49.398;7.614;2024-01-15T02:41:25;-3.70;99.90
50570;DHT22;36525;49.398;7.614;2024-01-15T02:43:52;-3.80;99.90
50570;DHT22;36525;49.398;7.614;2024-01-15T02:46:19;-3.80;99.90
50570;DHT22;36525;49.398;7.614;2024-01-15T02:48:45;-3.80;99.90
50570;DHT22;36525;49.398;7.614;2024-01-15T02:51:12;-3.80;99.90
50570;DHT22;36525;49.398;7.614;2024-01-15T02:53:39;-3.70;99.90
50570;DHT22;36525;49.398;7.614;2024-01-15T02:56:06;-3.80;99.90
50570;DHT22;36525;49.398;7.614;2024-01-15T02:58:34;-3.70;99.90
50570;DHT22;36525;49.398;7.614;2024-01-15T03:01:00;-3.70;99.90
50570;DHT22;36525;49.398;7.614;2024-01-15T03:03:30;-3.60;99.90
50570;DHT22;36525;49.398;7.614;2024-01-15T03:06:01;-3.60;99.90
50570;DHT22;36525;49.398;7.614;2024-01-15T03:08:28;-3.70;99.90
50570;DHT22;36525;49.398;7.614;2024-01-15T03:10:55;-3.70;99.90
50570;DHT22;36525;49.398;7.614;2024-01-15T03:13:22;-3.60;99.90
50570;DHT22;36525;49.398;7.614;2024-01-15T03:15:51;-3.60;99.90
50570;DHT22;36525;49.398;7.614;2024-01-15T03:18:19;-3.60;99.90
50570;DHT22;36525;49.398;7.614;2024-01-15T03:20:45;-3.50;99.90
50570;DHT22;36525;49.398;7.614;2024-01-15T03:23:12;-3.50;99.90
50570;DHT22;36525;49.398;7.614;2024-01-15T03:25:39;-3.60;99.90
50570;DHT22;36525;49.398;7.614;2024-01-15T03:28:06;-3.50;99.90
50570;DHT22;36525;49.398;7.614;2024-01-15T03:30:33;-3.40;99.90
50570;DHT22;36525;49.398;7.614;2024-01-15T03:33:00;-3.40;99.90
50570;DHT22;36525;49.398;7.614;2024-01-15T03:35:29;-3.40;99.90
50570;DHT22;36525;49.398;7.614;2024-01-15T03:37:57;-3.50;99.90
50570;DHT22;36525;49.398;7.614;2024-01-15T03:40:24;-3.40;99.90
50570;DHT22;36525;49.398;7.614;2024-01-15T03:42:51;-3.40;99.90
50570;DHT22;36525;49.398;7.614;2024-01-15T03:45:17;-3.30;99.90
50570;DHT22;36525;49.398;7.614;2024-01-15T03:47:44;-3.30;99.90
50570;DHT22;36525;49.398;7.614;2024-01-15T03:50:11;-3.40;99.90
50570;DHT22;36525;49.398;7.614;2024-01-15T03:52:38;-3.40;99.90
50570;DHT22;36525;49.398;7.614;2024-01-15T03:55:05;-3.40;99.90
50570;DHT22;36525;49.398;7.614;2024-01-15T03:57:32;-3.40;99.90
50570;DHT22;36525;49.398;7.614;2024-01-15T03:59:58;-3.30;99.90
50570;DHT22;36525;49.398;7.614;2024-01-15T04:02:25;-3.40;99.90
50570;DHT22;36525;49.398;7.614;2024-01-15T04:04:52;-3.30;99.90
50570;DHT22;36525;49.398;7.614;2024-01-15T04:07:19;-3.30;99.90
50570;DHT22;36525;49.398;7.614;2024-01-15T04:09:46;-3.30;99.90
50570;DHT22;36525;49.398;7.614;2024-01-15T04:12:13;-3.30;99.90
50570;DHT22;36525;49.398;7.614;2024-01-15T04:14:40;-3.30;99.90
50570;DHT22;36525;49.398;7.614;2024-01-15T04:17:06;-3.30;99.90
50570;DHT22;36525;49.398;7.614;2024-01-15T04:19:33;-3.30;99.90
50570;DHT22;36525;49.398;7.614;2024-01-15T04:22:00;-3.30;99.90
50570;DHT22;36525;49.398;7.614;2024-01-15T04:24:26;-3.30;99.90
50570;DHT22;36525;49.398;7.614;2024-01-15T04:26:53;-3.20;99.90
50570;DHT22;36525;49.398;7.614;2024-01-15T04:29:20;-3.20;99.90
50570;DHT22;36525;49.398;7.614;2024-01-15T04:31:47;-3.10;99.90
50570;DHT22;36525;49.398;7.614;2024-01-15T04:34:14;-3.00;99.90
50570;DHT22;36525;49.398;7.614;2024-01-15T04:36:41;-3.10;99.90
50570;DHT22;36525;49.398;7.614;2024-01-15T04:39:11;-3.10;99.90
50570;DHT22;36525;49.398;7.614;2024-01-15T04:41:38;-3.10;99.90
50570;DHT22;36525;49.398;7.614;2024-01-15T04:44:05;-3.10;99.90
50570;DHT22;36525;49.398;7.614;2024-01-15T04:46:32;-3.20;99.90
50570;DHT22;36525;49.398;7.614;2024-01-15T04:51:26;-3.10;99.90
50570;DHT22;36525;49.398;7.614;2024-01-15T04:53:53;-3.10;99.90
50570;DHT22;36525;49.398;7.614;2024-01-15T04:56:20;-3.10;99.90
50570;DHT22;36525;49.398;7.614;2024-01-15T04:58:47;-3.10;99.90
50570;DHT22;36525;49.398;7.614;2024-01-15T05:01:15;-3.10;99.90
50570;DHT22;36525;49.398;7.614;2024-01-15T05:03:42;-3.10;99.90
50570;DHT22;36525;49.398;7.614;2024-01-15T05:06:10;-3.00;99.90
50570;DHT22;36525;49.398;7.614;2024-01-15T05:08:36;-3.10;99.90
50570;DHT22;36525;49.398;7.614;2024-01-15T05:11:03;-3.00;99.90
50570;DHT22;36525;49.398;7.614;2024-01-15T05:13:30;-3.00;99.90
50570;DHT22;36525;49.398;7.614;2024-01-15T05:15:57;-3.00;99.90
50570;DHT22;36525;49.398;7.614;2024-01-15T05:18:24;-3.00;99.90
50570;DHT22;36525;49.398;7.614;2024-01-15T05:20:51;-3.00;99.90
50570;DHT22;36525;49.398;7.614;2024-01-15T05:23:19;-3.00;99.90
50570;DHT22;36525;49.398;7.614;2024-01-15T05:25:45;-3.00;99.90
50570;DHT22;36525;49.398;7.614;2024-01-15T05:28:13;-3.00;99.90
50570;DHT22;36525;49.398;7.614;2024-01-15T05:30:40;-2.90;99.90
50570;DHT22;36525;49.398;7.614;2024-01-15T05:33:07;-3.00;99.90
50570;DHT22;36525;49.398;7.614;2024-01-15T05:35:35;-2.90;99.90
50570;DHT22;36525;49.398;7.614;2024-01-15T05:38:01;-2.90;99.90
50570;DHT22;36525;49.398;7.614;2024-01-15T05:40:29;-2.90;99.90
50570;DHT22;36525;49.398;7.614;2024-01-15T05:42:56;-2.90;99.90
50570;DHT22;36525;49.398;7.614;2024-01-15T05:45:22;-2.80;99.90
50570;DHT22;36525;49.398;7.614;2024-01-15T05:47:49;-2.80;99.90
50570;DHT22;36525;49.398;7.614;2024-01-15T05:50:16;-2.80;99.90
50570;DHT22;36525;49.398;7.614;2024-01-15T05:52:43;-2.70;99.90
50570;DHT22;36525;49.398;7.614;2024-01-15T05:55:10;-2.70;99.90
50570;DHT22;36525;49.398;7.614;2024-01-15T05:57:37;-2.70;99.90
50570;DHT22;36525;49.398;7.614;2024-01-15T06:00:04;-2.60;99.90
50570;DHT22;36525;49.398;7.614;2024-01-15T06:02:31;-2.60;99.90
50570;DHT22;36525;49.398;7.614;2024-01-15T06:04:58;-2.60;99.90
50570;DHT22;36525;49.398;7.614;2024-01-15T06:07:25;-2.60;99.90
50570;DHT22;36525;49.398;7.614;2024-01-15T06:09:52;-2.60;99.90
50570;DHT22;36525;49.398;7.614;2024-01-15T06:12:19;-2.60;99.90
50570;DHT22;36525;49.398;7.614;2024-01-15T06:14:49;-2.60;99.90
50570;DHT22;36525;49.398;7.614;2024-01-15T06:17:16;-2.70;99.90
50570;DHT22;36525;49.398;7.614;2024-01-15T06:19:43;-2.70;99.90
50570;DHT22;36525;49.398;7.614;2024-01-15T06:22:09;-2.60;99.90
50570;DHT22;36525;49.398;7.614;2024-01-15T06:24:36;-2.60;99.90
50570;DHT22;36525;49.398;7.614;2024-01-15T06:27:03;-2.60;99.90
50570;DHT22;36525;49.398;7.614;2024-01-15T06:29:30;-2.60;99.90
50570;DHT22;36525;49.398;7.614;2024-01-15T06:31:57;-2.60;99.90
50570;DHT22;36525;49.398;7.614;2024-01-15T06:34:24;-2.60;99.90
50570;DHT22;36525;49.398;7.614;2024-01-15T06:36:54;-2.70;99.90
50570;DHT22;36525;49.398;7.614;2024-01-15T06:39:20;-2.60;99.90
50570;DHT22;36525;49.398;7.614;2024-01-15T06:41:47;-2.60;99.90
50570;DHT22;36525;49.398;7.614;2024-01-15T06:44:14;-2.60;99.90
50570;DHT22;36525;49.398;7.614;2024-01-15T06:46:42;-2.60;99.90
50570;DHT22;36525;49.398;7.614;2024-01-15T06:49:10;-2.60;99.90
50570;DHT22;36525;49.398;7.614;2024-01-15T06:51:37;-2.60;99.90
50570;DHT22;36525;49.398;7.614;2024-01-15T06:54:04;-2.60;99.90
50570;DHT22;36525;49.398;7.614;2024-01-15T06:56:31;-2.50;99.90
50570;DHT22;36525;49.398;7.614;2024-01-15T06:58:58;-2.50;99.90
50570;DHT22;36525;49.398;7.614;2024-01-15T07:01:25;-2.50;99.90
50570;DHT22;36525;49.398;7.614;2024-01-15T07:03:52;-2.50;99.90
50570;DHT22;36525;49.398;7.614;2024-01-15T07:06:19;-2.40;99.90
50570;DHT22;36525;49.398;7.614;2024-01-15T07:08:46;-2.50;99.90
50570;DHT22;36525;49.398;7.614;2024-01-15T07:11:12;-2.50;99.90
50570;DHT22;36525;49.398;7.614;2024-01-15T07:13:39;-2.50;99.90
50570;DHT22;36525;49.398;7.614;2024-01-15T07:16:06;-2.40;99.90
50570;DHT22;36525;49.398;7.614;2024-01-15T07:18:33;-2.40;99.90
50570;DHT22;36525;49.398;7.614;2024-01-15T07:21:00;-2.30;99.90
50570;DHT22;36525;49.398;7.614;2024-01-15T07:23:30;-2.30;99.90
50570;DHT22;36525;49.398;7.614;2024-01-15T07:25:57;-2.30;99.90
50570;DHT22;36525;49.398;7.614;2024-01-15T07:28:24;-2.30;99.90
50570;DHT22;36525;49.398;7.614;2024-01-15T07:30:51;-2.30;99.90
50570;DHT22;36525;49.398;7.614;2024-01-15T07:33:20;-2.30;99.90
50570;DHT22;36525;49.398;7.614;2024-01-15T07:35:47;-2.30;99.90
50570;DHT22;36525;49.398;7.614;2024-01-15T07:38:14;-2.30;99.90
50570;DHT22;36525;49.398;7.614;2024-01-15T07:40:41;-2.30;99.90
50570;DHT22;36525;49.398;7.614;2024-01-15T07:43:08;-2.30;99.90
50570;DHT22;36525;49.398;7.614;2024-01-15T07:45:34;-2.30;99.90
50570;DHT22;36525;49.398;7.614;2024-01-15T07:48:01;-2.30;99.90
50570;DHT22;36525;49.398;7.614;2024-01-15T07:50:30;-2.30;99.90
50570;DHT22;36525;49.398;7.614;2024-01-15T07:52:59;-2.30;99.90
50570;DHT22;36525;49.398;7.614;2024-01-15T07:55:26;-2.20;99.90
50570;DHT22;36525;49.398;7.614;2024-01-15T07:57:53;-2.20;99.90
50570;DHT22;36525;49.398;7.614;2024-01-15T08:00:40;-2.20;99.90
50570;DHT22;36525;49.398;7.614;2024-01-15T08:03:07;-2.20;99.90
50570;DHT22;36525;49.398;7.614;2024-01-15T08:05:34;-2.20;99.90
50570;DHT22;36525;49.398;7.614;2024-01-15T08:08:01;-2.10;99.90
50570;DHT22;36525;49.398;7.614;2024-01-15T08:10:28;-2.10;99.90
50570;DHT22;36525;49.398;7.614;2024-01-15T08:12:55;-2.10;99.90
50570;DHT22;36525;49.398;7.614;2024-01-15T08:15:22;-2.10;99.90
50570;DHT22;36525;49.398;7.614;2024-01-15T08:17:50;-2.10;99.90
50570;DHT22;36525;49.398;7.614;2024-01-15T08:20:17;-2.20;99.90
50570;DHT22;36525;49.398;7.614;2024-01-15T08:22:44;-2.10;99.90
50570;DHT22;36525;49.398;7.614;2024-01-15T08:25:11;-2.10;99.90
50570;DHT22;36525;49.398;7.614;2024-01-15T08:27:39;-2.10;99.90
50570;DHT22;36525;49.398;7.614;2024-01-15T08:30:06;-2.00;99.90
50570;DHT22;36525;49.398;7.614;2024-01-15T08:32:34;-2.00;99.90
50570;DHT22;36525;49.398;7.614;2024-01-15T08:35:03;-2.00;99.90
50570;DHT22;36525;49.398;7.614;2024-01-15T08:37:30;-2.00;99.90
50570;DHT22;36525;49.398;7.614;2024-01-15T08:39:57;-2.00;99.90
50570;DHT22;36525;49.398;7.614;2024-01-15T08:42:24;-2.00;99.90
50570;DHT22;36525;49.398;7.614;2024-01-15T08:44:51;-2.00;99.90
50570;DHT22;36525;49.398;7.614;2024-01-15T08:47:18;-1.90;99.90
50570;DHT22;36525;49.398;7.614;2024-01-15T08:49:44;-1.90;99.90
50570;DHT22;36525;49.398;7.614;2024-01-15T08:52:12;-1.90;99.90
50570;DHT22;36525;49.398;7.614;2024-01-15T08:54:40;-1.80;99.90
50570;DHT22;36525;49.398;7.614;2024-01-15T08:57:09;-1.80;99.90
50570;DHT22;36525;49.398;7.614;2024-01-15T08:59:37;-1.80;99.90
50570;DHT22;36525;49.398;7.614;2024-01-15T09:02:05;-1.80;99.90
50570;DHT22;36525;49.398;7.614;2024-01-15T09:04:32;-1.80;99.90
50570;DHT22;36525;49.398;7.614;2024-01-15T09:06:59;-1.80;99.90
50570;DHT22;36525;49.398;7.614;2024-01-15T09:09:26;-1.80;99.90
50570;DHT22;36525;49.398;7.614;2024-01-15T09:11:53;-1.80;99.90
50570;DHT22;36525;49.398;7.614;2024-01-15T09:14:19;-1.80;99.90
50570;DHT22;36525;49.398;7.614;2024-01-15T09:17:03;-1.70;99.90
50570;DHT22;36525;49.398;7.614;2024-01-15T09:19:31;-1.70;99.90
50570;DHT22;36525;49.398;7.614;2024-01-15T09:21:58;-1.70;99.90
50570;DHT22;36525;49.398;7.614;2024-01-15T09:24:25;-1.70;99.90
50570;DHT22;36525;49.398;7.614;2024-01-15T09:26:54;-1.60;99.90
50570;DHT22;36525;49.398;7.614;2024-01-15T09:29:21;-1.60;99.90
50570;DHT22;36525;49.398;7.614;2024-01-15T09:31:51;-1.60;99.90
50570;DHT22;36525;49.398;7.614;2024-01-15T09:34:18;-1.60;99.90
50570;DHT22;36525;49.398;7.614;2024-01-15T09:36:45;-1.60;99.90
50570;DHT22;36525;49.398;7.614;2024-01-15T09:39:12;-1.50;99.90
50570;DHT22;36525;49.398;7.614;2024-01-15T09:41:39;-1.40;99.90
50570;DHT22;36525;49.398;7.614;2024-01-15T09:44:06;-1.50;99.90
50570;DHT22;36525;49.398;7.614;2024-01-15T09:46:36;-1.40;99.90
50570;DHT22;36525;49.398;7.614;2024-01-15T09:49:06;-1.40;99.90
50570;DHT22;36525;49.398;7.614;2024-01-15T09:51:34;-1.40;99.90
50570;DHT22;36525;49.398;7.614;2024-01-15T09:54:02;-1.40;99.90
50570;DHT22;36525;49.398;7.614;2024-01-15T09:56:30;-1.20;99.90
50570;DHT22;36525;49.398;7.614;2024-01-15T09:58:57;-1.20;99.90
50570;DHT22;36525;49.398;7.614;2024-01-15T10:01:24;-1.20;99.90
50570;DHT22;36525;49.398;7.614;2024-01-15T10:03:51;-1.20;99.90
50570;DHT22;36525;49.398;7.614;2024-01-15T10:06:21;-1.10;99.90
50570;DHT22;36525;49.398;7.614;2024-01-15T10:08:49;-1.10;99.90
50570;DHT22;36525;49.398;7.614;2024-01-15T10:11:17;-1.10;99.90
50570;DHT22;36525;49.398;7.614;2024-01-15T10:13:44;-1.10;99.90
50570;DHT22;36525;49.398;7.614;2024-01-15T10:16:16;-1.10;99.90
50570;DHT22;36525;49.398;7.614;2024-01-15T10:18:43;-1.00;99.90
50570;DHT22;36525;49.398;7.614;2024-01-15T10:21:10;-1.00;99.90
50570;DHT22;36525;49.398;7.614;2024-01-15T10:23:37;-1.10;99.90
50570;DHT22;36525;49.398;7.614;2024-01-15T10:26:06;-1.00;99.90
50570;DHT22;36525;49.398;7.614;2024-01-15T10:28:33;-0.90;99.90
50570;DHT22;36525;49.398;7.614;2024-01-15T10:31:00;-0.90;99.90
50570;DHT22;36525;49.398;7.614;2024-01-15T10:33:27;-0.90;99.90
50570;DHT22;36525;49.398;7.614;2024-01-15T10:35:55;-0.90;99.90
50570;DHT22;36525;49.398;7.614;2024-01-15T10:38:26;-0.90;99.90
50570;DHT22;36525;49.398;7.614;2024-01-15T10:40:53;-0.90;99.90
50570;DHT22;36525;49.398;7.614;2024-01-15T10:43:22;-0.80;99.90
50570;DHT22;36525;49.398;7.614;2024-01-15T10:45:52;-0.90;99.90
50570;DHT22;36525;49.398;7.614;2024-01-15T10:48:19;-0.80;99.90
50570;DHT22;36525;49.398;7.614;2024-01-15T10:50:47;-0.80;99.90
50570;DHT22;36525;49.398;7.614;2024-01-15T10:53:14;-0.90;99.90
50570;DHT22;36525;49.398;7.614;2024-01-15T10:55:43;-0.90;99.90
50570;DHT22;36525;49.398;7.614;2024-01-15T10:58:12;-0.80;99.90
50570;DHT22;36525;49.398;7.614;2024-01-15T11:00:41;-0.90;99.90
50570;DHT22;36525;49.398;7.614;2024-01-15T11:03:08;-0.90;99.90
50570;DHT22;36525;49.398;7.614;2024-01-15T11:05:38;-0.90;99.90
50570;DHT22;36525;49.398;7.614;2024-01-15T11:08:06;-0.80;99.90
50570;DHT22;36525;49.398;7.614;2024-01-15T11:13:19;-0.80;99.90
50570;DHT22;36525;49.398;7.614;2024-01-15T11:21:32;-0.70;99.90
50570;DHT22;36525;49.398;7.614;2024-01-15T11:24:00;-0.60;99.90
50570;DHT22;36525;49.398;7.614;2024-01-15T11:28:55;-0.50;99.90
50570;DHT22;36525;49.398;7.614;2024-01-15T11:34:08;-0.60;99.90
50570;DHT22;36525;49.398;7.614;2024-01-15T11:39:47;-0.50;99.90
50570;DHT22;36525;49.398;7.614;2024-01-15T11:42:06;-0.50;99.90
50570;DHT22;36525;49.398;7.614;2024-01-15T11:44:33;-0.40;99.90
50570;DHT22;36525;49.398;7.614;2024-01-15T11:47:00;-0.40;99.90
50570;DHT22;36525;49.398;7.614;2024-01-15T11:52:17;-0.30;99.90
50570;DHT22;36525;49.398;7.614;2024-01-15T11:54:48;-0.30;99.90
50570;DHT22;36525;49.398;7.614;2024-01-15T11:57:21;-0.30;99.90
50570;DHT22;36525;49.398;7.614;2024-01-15T11:59:53;-0.30;99.90
50570;DHT22;36525;49.398;7.614;2024-01-15T12:02:20;-0.20;99.90
50570;DHT22;36525;49.398;7.614;2024-01-15T12:04:48;-0.30;99.90
50570;DHT22;36525;49.398;7.614;2024-01-15T12:07:15;-0.20;99.90
50570;DHT22;36525;49.398;7.614;2024-01-15T12:09:45;-0.20;99.90
50570;DHT22;36525;49.398;7.614;2024-01-15T12:12:13;-0.10;99.90
50570;DHT22;36525;49.398;7.614;2024-01-15T12:14:56;-0.10;99.90
50570;DHT22;36525;49.398;7.614;2024-01-15T12:17:26;0.00;99.90
50570;DHT22;36525;49.398;7.614;2024-01-15T12:19:53;-0.10;99.90
50570;DHT22;36525;49.398;7.614;2024-01-15T12:22:20;-0.10;99.90
50570;DHT22;36525;49.398;7.614;2024-01-15T12:24:46;-0.10;99.90
50570;DHT22;36525;49.398;7.614;2024-01-15T12:27:14;0.00;99.90
50570;DHT22;36525;49.398;7.614;2024-01-15T12:29:40;-0.10;99.90
50570;DHT22;36525;49.398;7.614;2024-01-15T12:32:07;0.00;99.90
50570;DHT22;36525;49.398;7.614;2024-01-15T12:34:34;0.00;99.90
50570;DHT22;36525;49.398;7.614;2024-01-15T12:37:01;-0.10;99.90
50570;DHT22;36525;49.398;7.614;2024-01-15T12:39:28;0.00;99.90
50570;DHT22;36525;49.398;7.614;2024-01-15T12:41:55;0.00;99.90
50570;DHT22;36525;49.398;7.614;2024-01-15T12:44:22;-0.10;99.90
50570;DHT22;36525;49.398;7.614;2024-01-15T12:46:49;-0.10;99.90
50570;DHT22;36525;49.398;7.614;2024-01-15T12:49:16;-0.10;99.90
50570;DHT22;36525;49.398;7.614;2024-01-15T12:51:51;0.00;99.90
50570;DHT22;36525;49.398;7.614;2024-01-15T12:54:19;0.00;99.90
50570;DHT22;36525;49.398;7.614;2024-01-15T12:56:46;0.10;99.90
50570;DHT22;36525;49.398;7.614;2024-01-15T12:59:13;0.10;99.90
50570;DHT22;36525;49.398;7.614;2024-01-15T13:01:40;0.20;99.90
50570;DHT22;36525;49.398;7.614;2024-01-15T13:04:07;0.20;99.90
50570;DHT22;36525;49.398;7.614;2024-01-15T13:06:38;0.20;99.90
50570;DHT22;36525;49.398;7.614;2024-01-15T13:09:05;0.20;99.90
50570;DHT22;36525;49.398;7.614;2024-01-15T13:11:32;0.30;99.90
50570;DHT22;36525;49.398;7.614;2024-01-15T13:13:59;0.40;99.90
50570;DHT22;36525;49.398;7.614;2024-01-15T13:16:26;0.60;99.90
50570;DHT22;36525;49.398;7.614;2024-01-15T13:18:56;0.60;99.90
50570;DHT22;36525;49.398;7.614;2024-01-15T13:21:25;0.60;99.90
50570;DHT22;36525;49.398;7.614;2024-01-15T13:23:52;0.70;99.90
50570;DHT22;36525;49.398;7.614;2024-01-15T13:26:19;0.60;99.90
50570;DHT22;36525;49.398;7.614;2024-01-15T13:28:46;0.60;99.90
50570;DHT22;36525;49.398;7.614;2024-01-15T13:31:13;0.80;99.90
50570;DHT22;36525;49.398;7.614;2024-01-15T13:33:41;0.80;99.90
50570;DHT22;36525;49.398;7.614;2024-01-15T13:36:10;0.80;99.90
50570;DHT22;36525;49.398;7.614;2024-01-15T13:38:37;0.90;99.90
50570;DHT22;36525;49.398;7.614;2024-01-15T13:41:08;0.80;99.90
50570;DHT22;36525;49.398;7.614;2024-01-15T13:43:34;0.60;99.90
50570;DHT22;36525;49.398;7.614;2024-01-15T13:46:01;0.60;99.90
50570;DHT22;36525;49.398;7.614;2024-01-15T13:48:31;0.50;99.90
50570;DHT22;36525;49.398;7.614;2024-01-15T13:50:58;0.50;99.90
50570;DHT22;36525;49.398;7.614;2024-01-15T13:53:25;0.60;99.90
50570;DHT22;36525;49.398;7.614;2024-01-15T13:55:53;0.70;99.90
50570;DHT22;36525;49.398;7.614;2024-01-15T13:58:19;0.60;99.90
50570;DHT22;36525;49.398;7.614;2024-01-15T14:00:47;0.60;99.90
50570;DHT22;36525;49.398;7.614;2024-01-15T14:03:15;0.50;99.90
50570;DHT22;36525;49.398;7.614;2024-01-15T14:05:42;0.50;99.90
50570;DHT22;36525;49.398;7.614;2024-01-15T14:08:09;0.50;99.90
50570;DHT22;36525;49.398;7.614;2024-01-15T14:10:35;0.50;99.90
50570;DHT22;36525;49.398;7.614;2024-01-15T14:13:02;0.50;99.90
50570;DHT22;36525;49.398;7.614;2024-01-15T14:15:30;0.40;99.90
50570;DHT22;36525;49.398;7.614;2024-01-15T14:17:56;0.20;99.90
50570;DHT22;36525;49.398;7.614;2024-01-15T14:20:25;0.20;99.90
50570;DHT22;36525;49.398;7.614;2024-01-15T14:22:51;0.10;99.90
50570;DHT22;36525;49.398;7.614;2024-01-15T14:25:18;0.20;99.90
50570;DHT22;36525;49.398;7.614;2024-01-15T14:27:45;0.20;99.90
50570;DHT22;36525;49.398;7.614;2024-01-15T14:30:12;0.20;99.90
50570;DHT22;36525;49.398;7.614;2024-01-15T14:32:40;0.20;99.90
50570;DHT22;36525;49.398;7.614;2024-01-15T14:35:07;0.30;99.90
50570;DHT22;36525;49.398;7.614;2024-01-15T14:37:37;0.30;99.90
50570;DHT22;36525;49.398;7.614;2024-01-15T14:40:07;0.30;99.90
50570;DHT22;36525;49.398;7.614;2024-01-15T14:42:34;0.30;99.90
50570;DHT22;36525;49.398;7.614;2024-01-15T14:45:02;0.50;99.90
50570;DHT22;36525;49.398;7.614;2024-01-15T14:47:38;0.50;99.90
50570;DHT22;36525;49.398;7.614;2024-01-15T14:50:06;0.50;99.90
50570;DHT22;36525;49.398;7.614;2024-01-15T14:52:34;0.40;99.90
50570;DHT22;36525;49.398;7.614;2024-01-15T14:55:08;0.40;99.90
50570;DHT22;36525;49.398;7.614;2024-01-15T14:57:36;0.40;99.90
50570;DHT22;36525;49.398;7.614;2024-01-15T15:00:04;0.30;99.90
50570;DHT22;36525;49.398;7.614;2024-01-15T15:02:36;0.20;99.90
50570;DHT22;36525;49.398;7.614;2024-01-15T15:05:04;0.20;99.90
50570;DHT22;36525;49.398;7.614;2024-01-15T15:07:31;0.20;99.90
50570;DHT22;36525;49.398;7.614;2024-01-15T15:09:58;0.10;99.90
50570;DHT22;36525;49.398;7.614;2024-01-15T15:12:25;0.10;99.90
50570;DHT22;36525;49.398;7.614;2024-01-15T15:14:53;0.00;99.90
50570;DHT22;36525;49.398;7.614;2024-01-15T15:17:33;0.10;99.90
50570;DHT22;36525;49.398;7.614;2024-01-15T15:20:01;0.00;99.90
50570;DHT22;36525;49.398;7.614;2024-01-15T15:22:29;0.10;99.90
50570;DHT22;36525;49.398;7.614;2024-01-15T15:24:56;0.00;99.90
50570;DHT22;36525;49.398;7.614;2024-01-15T15:27:23;0.10;99.90
50570;DHT22;36525;49.398;7.614;2024-01-15T15:29:50;0.10;99.90
50570;DHT22;36525;49.398;7.614;2024-01-15T15:32:17;0.20;99.90
50570;DHT22;36525;49.398;7.614;2024-01-15T15:34:44;0.10;99.90
50570;DHT22;36525;49.398;7.614;2024-01-15T15:37:11;0.20;99.90
50570;DHT22;36525;49.398;7.614;2024-01-15T15:43:28;0.10;99.90
50570;DHT22;36525;49.398;7.614;2024-01-15T15:45:56;-0.10;99.90
50570;DHT22;36525;49.398;7.614;2024-01-15T15:48:26;-0.20;99.90
50570;DHT22;36525;49.398;7.614;2024-01-15T15:50:54;-0.30;99.90
50570;DHT22;36525;49.398;7.614;2024-01-15T15:55:51;-0.40;99.90
50570;DHT22;36525;49.398;7.614;2024-01-15T15:58:18;-0.40;99.90
50570;DHT22;36525;49.398;7.614;2024-01-15T16:00:46;-0.50;99.90
50570;DHT22;36525;49.398;7.614;2024-01-15T16:03:13;-0.50;99.90
50570;DHT22;36525;49.398;7.614;2024-01-15T16:05:40;-0.50;99.90